createdAt,value
2019-05-02T00:00:54.029Z,76.77
2019-05-02T00:01:36.419Z,76.70
2019-05-02T00:02:15.464Z,76.64
2019-05-02T00:02:52.593Z,76.56
2019-05-02T00:03:29.959Z,76.48
2019-05-02T00:04:12.339Z,76.43
2019-05-02T00:04:46.574Z,76.36
2019-05-02T00:05:27.314Z,76.33
2019-05-02T00:06:02.932Z,76.30
2019-05-02T00:06:44.090Z,76.25
2019-05-02T00:07:21.798Z,76.22
2019-05-02T00:07:59.652Z,76.20
2019-05-02T00:08:36.641Z,76.14
2019-05-02T00:09:13.644Z,75.99
2019-05-02T00:09:50.950Z,75.86
2019-05-02T00:10:27.315Z,75.66
2019-05-02T00:11:04.717Z,75.50
2019-05-02T00:11:41.855Z,75.35
2019-05-02T00:12:18.751Z,75.22
2019-05-02T00:12:55.368Z,75.04
2019-05-02T00:13:34.996Z,74.88
2019-05-02T00:14:11.906Z,74.74
2019-05-02T00:14:50.460Z,74.60
2019-05-02T00:15:26.885Z,74.47
2019-05-02T00:16:03.810Z,74.38
2019-05-02T00:16:40.018Z,74.32
2019-05-02T00:17:20.336Z,74.16
2019-05-02T00:17:56.771Z,74.10
2019-05-02T00:18:37.332Z,74.06
2019-05-02T00:19:13.927Z,73.97
2019-05-02T00:19:51.289Z,73.90
2019-05-02T00:20:27.866Z,73.84
2019-05-02T00:21:05.166Z,73.78
2019-05-02T00:21:43.087Z,73.71
2019-05-02T00:22:20.202Z,73.71
2019-05-02T00:22:56.782Z,73.65
2019-05-02T00:23:33.104Z,73.59
2019-05-02T00:24:11.166Z,73.50
2019-05-02T00:24:47.587Z,73.45
2019-05-02T00:25:24.283Z,73.28
2019-05-02T00:26:01.249Z,73.18
2019-05-02T00:26:37.903Z,73.05
2019-05-02T00:27:17.420Z,72.93
2019-05-02T00:27:54.395Z,72.84
2019-05-02T00:28:30.608Z,72.78
2019-05-02T00:29:06.995Z,72.76
2019-05-02T00:29:43.932Z,72.73
2019-05-02T00:30:20.366Z,72.70
2019-05-02T00:30:57.234Z,72.65
2019-05-02T00:31:36.246Z,72.59
2019-05-02T00:32:12.548Z,72.58
2019-05-02T00:32:48.753Z,72.51
2019-05-02T00:33:29.339Z,72.46
2019-05-02T00:34:07.690Z,72.49
2019-05-02T00:34:44.443Z,72.49
2019-05-02T00:35:21.268Z,72.53
2019-05-02T00:35:57.873Z,72.58
2019-05-02T00:36:33.981Z,72.63
2019-05-02T00:37:10.729Z,72.61
2019-05-02T00:37:47.000Z,72.59
2019-05-02T00:38:23.401Z,72.60
2019-05-02T00:38:59.792Z,72.56
2019-05-02T00:39:36.098Z,72.51
2019-05-02T00:40:12.322Z,72.42
2019-05-02T00:40:50.719Z,72.36
2019-05-02T00:41:28.563Z,72.25
2019-05-02T00:42:12.498Z,72.13
2019-05-02T00:42:43.243Z,72.04
2019-05-02T00:43:19.555Z,71.92
2019-05-02T00:43:55.968Z,71.80
2019-05-02T00:44:32.607Z,71.69
2019-05-02T00:45:09.410Z,71.45
2019-05-02T00:45:49.025Z,71.37
2019-05-02T00:46:25.571Z,71.26
2019-05-02T00:47:10.850Z,71.14
2019-05-02T00:47:58.159Z,71.01
2019-05-02T00:48:42.076Z,70.84
2019-05-02T00:49:18.287Z,70.67
2019-05-02T00:49:54.884Z,70.41
2019-05-02T00:50:35.366Z,70.22
2019-05-02T00:51:14.332Z,69.95
2019-05-02T00:51:51.079Z,69.62
2019-05-02T00:52:27.707Z,69.39
2019-05-02T00:53:07.146Z,69.10
2019-05-02T00:53:44.370Z,68.94
2019-05-02T00:54:24.257Z,68.64
2019-05-02T00:55:01.721Z,68.18
2019-05-02T00:55:38.567Z,67.97
2019-05-02T00:56:15.165Z,67.76
2019-05-02T00:56:51.729Z,67.53
2019-05-02T00:57:30.487Z,67.36
2019-05-02T00:58:07.072Z,67.18
2019-05-02T00:58:43.524Z,66.93
2019-05-02T00:59:19.862Z,66.68
2019-05-02T00:59:56.872Z,66.56
2019-05-02T01:00:48.586Z,66.28
2019-05-02T01:01:43.493Z,66.13
2019-05-02T01:02:35.866Z,66.03
2019-05-02T01:03:16.168Z,65.70
2019-05-02T01:03:54.818Z,65.49
2019-05-02T01:04:34.399Z,65.36
2019-05-02T01:05:15.518Z,65.29
2019-05-02T01:05:52.167Z,65.24
2019-05-02T01:06:29.059Z,65.16
2019-05-02T01:07:06.162Z,64.96
2019-05-02T01:07:42.339Z,64.72
2019-05-02T01:08:18.722Z,64.43
2019-05-02T01:08:56.856Z,64.21
2019-05-02T01:09:33.742Z,63.96
2019-05-02T01:10:10.160Z,63.78
2019-05-02T01:10:46.359Z,63.71
2019-05-02T01:11:22.682Z,63.72
2019-05-02T01:12:03.174Z,63.69
2019-05-02T01:12:40.021Z,63.65
2019-05-02T01:13:19.203Z,63.70
2019-05-02T01:13:57.720Z,63.74
2019-05-02T01:14:34.265Z,63.90
2019-05-02T01:15:10.973Z,64.11
2019-05-02T01:15:49.310Z,64.22
2019-05-02T01:16:25.621Z,64.26
2019-05-02T01:17:04.889Z,64.21
2019-05-02T01:17:41.335Z,64.03
2019-05-02T01:18:17.636Z,63.83
2019-05-02T01:18:54.275Z,63.45
2019-05-02T01:19:31.154Z,63.15
2019-05-02T01:20:08.499Z,63.05
2019-05-02T01:20:45.496Z,63.13
2019-05-02T01:21:24.618Z,63.03
2019-05-02T01:22:01.764Z,62.87
2019-05-02T01:22:41.319Z,62.89
2019-05-02T01:23:18.191Z,62.64
2019-05-02T01:23:58.901Z,62.32
2019-05-02T01:24:34.280Z,62.06
2019-05-02T01:25:15.367Z,62.00
2019-05-02T01:25:52.766Z,61.95
2019-05-02T01:26:33.064Z,61.61
2019-05-02T01:27:27.312Z,61.36
2019-05-02T01:28:18.833Z,61.18
2019-05-02T01:29:01.508Z,60.87
2019-05-02T01:30:01.630Z,60.53
2019-05-02T01:31:02.422Z,60.42
2019-05-02T01:32:08.304Z,60.10
2019-05-02T01:32:55.134Z,59.44
2019-05-02T01:33:41.942Z,59.31
2019-05-02T01:34:37.833Z,59.09
2019-05-02T01:35:21.507Z,58.74
2019-05-02T01:36:08.804Z,58.58
2019-05-02T01:37:04.503Z,58.39
2019-05-02T01:38:15.780Z,58.06
2019-05-02T01:38:52.784Z,57.81
2019-05-02T01:39:32.198Z,57.63
2019-05-02T01:40:13.048Z,57.46
2019-05-02T01:40:53.098Z,57.48
2019-05-02T01:41:31.100Z,57.25
2019-05-02T01:42:12.924Z,57.20
2019-05-02T01:42:51.014Z,57.13
2019-05-02T01:43:29.752Z,57.18
2019-05-02T01:44:10.747Z,57.27
2019-05-02T01:44:48.202Z,57.39
2019-05-02T01:45:26.109Z,57.29
2019-05-02T01:46:03.268Z,57.27
2019-05-02T01:46:39.689Z,57.23
2019-05-02T01:47:17.418Z,57.35
2019-05-02T01:47:53.785Z,57.52
2019-05-02T01:48:30.468Z,57.40
2019-05-02T01:49:06.968Z,57.28
2019-05-02T01:49:45.775Z,57.13
2019-05-02T01:50:24.288Z,57.01
2019-05-02T01:51:04.533Z,56.91
2019-05-02T01:51:42.010Z,57.00
2019-05-02T01:52:23.657Z,57.12
2019-05-02T01:53:00.868Z,57.13
2019-05-02T01:53:37.356Z,57.13
2019-05-02T01:54:16.652Z,57.12
2019-05-02T01:54:53.223Z,57.18
2019-05-02T01:55:36.538Z,57.19
2019-05-02T01:56:13.300Z,57.28
2019-05-02T01:56:50.352Z,57.43
2019-05-02T01:57:26.692Z,57.66
2019-05-02T01:58:03.069Z,57.79
2019-05-02T01:58:39.865Z,57.89
2019-05-02T01:59:16.160Z,57.89
2019-05-02T01:59:53.625Z,58.06
2019-05-02T02:00:31.198Z,58.20
2019-05-02T02:01:07.693Z,58.34
2019-05-02T02:01:44.012Z,58.49
2019-05-02T02:02:20.292Z,58.57
2019-05-02T02:02:56.686Z,58.66
2019-05-02T02:03:34.002Z,58.73
2019-05-02T02:04:20.999Z,58.73
2019-05-02T02:04:59.310Z,58.79
2019-05-02T02:05:38.140Z,58.91
2019-05-02T02:06:15.155Z,59.00
2019-05-02T02:06:52.730Z,59.01
2019-05-02T02:07:29.022Z,59.06
2019-05-02T02:08:05.773Z,58.94
2019-05-02T02:08:42.437Z,58.71
2019-05-02T02:09:21.285Z,58.52
2019-05-02T02:09:57.574Z,58.38
2019-05-02T02:10:35.370Z,58.27
2019-05-02T02:11:12.546Z,58.14
2019-05-02T02:11:49.716Z,58.03
2019-05-02T02:12:26.455Z,58.01
2019-05-02T02:13:05.061Z,58.15
2019-05-02T02:13:42.066Z,58.07
2019-05-02T02:14:19.058Z,57.75
2019-05-02T02:14:55.790Z,57.49
2019-05-02T02:15:33.640Z,57.33
2019-05-02T02:16:10.824Z,57.35
2019-05-02T02:16:47.369Z,57.05
2019-05-02T02:17:24.983Z,56.76
2019-05-02T02:18:02.686Z,56.43
2019-05-02T02:18:46.941Z,55.98
2019-05-02T02:19:34.661Z,55.88
2019-05-02T02:20:14.028Z,55.70
2019-05-02T02:21:09.919Z,55.54
2019-05-02T02:22:08.379Z,55.57
2019-05-02T02:23:02.149Z,55.18
2019-05-02T02:24:00.725Z,55.10
2019-05-02T02:24:47.356Z,55.13
2019-05-02T02:25:37.390Z,55.08
2019-05-02T02:26:14.213Z,54.80
2019-05-02T02:26:53.591Z,54.49
2019-05-02T02:27:30.259Z,54.09
2019-05-02T02:28:07.259Z,54.15
2019-05-02T02:28:43.510Z,54.21
2019-05-02T02:29:19.719Z,54.28
2019-05-02T02:29:56.014Z,54.55
2019-05-02T02:30:33.332Z,54.47
2019-05-02T02:31:12.357Z,54.43
2019-05-02T02:31:49.369Z,54.46
2019-05-02T02:32:32.275Z,54.36
2019-05-02T02:33:09.839Z,54.28
2019-05-02T02:33:47.635Z,54.13
2019-05-02T02:34:29.279Z,54.14
2019-05-02T02:35:09.914Z,54.05
2019-05-02T02:35:50.368Z,54.02
2019-05-02T02:36:31.814Z,53.90
2019-05-02T02:37:12.462Z,53.78
2019-05-02T02:37:53.308Z,53.68
2019-05-02T02:38:26.842Z,53.49
2019-05-02T02:39:06.843Z,53.27
2019-05-02T02:39:54.286Z,52.98
2019-05-02T02:40:33.749Z,52.80
2019-05-02T02:41:13.116Z,52.83
2019-05-02T02:41:52.537Z,53.00
2019-05-02T02:42:34.057Z,52.57
2019-05-02T02:43:30.277Z,52.42
2019-05-02T02:44:04.657Z,52.57
2019-05-02T02:44:51.563Z,52.64
2019-05-02T02:45:57.587Z,52.49
2019-05-02T02:46:38.063Z,52.42
2019-05-02T02:47:18.807Z,52.25
2019-05-02T02:47:59.841Z,52.13
2019-05-02T02:48:33.935Z,52.00
2019-05-02T02:49:14.028Z,52.03
2019-05-02T02:49:49.538Z,52.02
2019-05-02T02:50:29.469Z,51.85
2019-05-02T02:51:06.338Z,51.68
2019-05-02T02:51:42.606Z,51.50
2019-05-02T02:52:18.982Z,51.12
2019-05-02T02:52:56.073Z,51.02
2019-05-02T02:53:32.302Z,51.01
2019-05-02T02:54:09.329Z,50.85
2019-05-02T02:54:48.851Z,50.95
2019-05-02T02:55:26.332Z,50.98
2019-05-02T02:56:04.102Z,50.90
2019-05-02T02:56:40.945Z,50.78
2019-05-02T02:57:27.994Z,50.69
2019-05-02T02:58:04.680Z,50.79
2019-05-02T02:58:45.516Z,50.94
2019-05-02T02:59:26.263Z,50.87
2019-05-02T03:00:07.290Z,50.63
2019-05-02T03:00:41.569Z,50.46
2019-05-02T03:01:27.232Z,50.35
2019-05-02T03:01:56.535Z,50.29
2019-05-02T03:02:32.792Z,50.19
2019-05-02T03:03:09.476Z,50.08
2019-05-02T03:03:46.085Z,49.90
2019-05-02T03:04:22.372Z,49.62
2019-05-02T03:04:58.650Z,49.40
2019-05-02T03:05:39.578Z,49.04
2019-05-02T03:06:16.038Z,48.62
2019-05-02T03:06:52.390Z,48.58
2019-05-02T03:07:31.479Z,48.59
2019-05-02T03:08:08.206Z,49.05
2019-05-02T03:08:48.709Z,49.68
2019-05-02T03:09:26.703Z,50.13
2019-05-02T03:10:06.328Z,50.33
2019-05-02T03:10:45.178Z,50.25
2019-05-02T03:11:23.534Z,50.28
2019-05-02T03:12:18.158Z,50.56
2019-05-02T03:13:15.027Z,50.90
2019-05-02T03:14:05.592Z,50.68
2019-05-02T03:14:41.075Z,50.54
2019-05-02T03:15:20.817Z,50.53
2019-05-02T03:16:00.455Z,50.44
2019-05-02T03:16:46.075Z,50.32
2019-05-02T03:17:20.262Z,50.15
2019-05-02T03:17:59.995Z,50.12
2019-05-02T03:18:39.486Z,50.13
2019-05-02T03:19:14.631Z,49.96
2019-05-02T03:19:54.333Z,49.67
2019-05-02T03:20:39.590Z,50.14
2019-05-02T03:21:13.647Z,49.56
2019-05-02T03:22:03.801Z,49.45
2019-05-02T03:22:41.783Z,49.54
2019-05-02T03:23:15.181Z,49.69
2019-05-02T03:24:01.719Z,49.32
2019-05-02T03:24:30.538Z,48.86
2019-05-02T03:25:09.337Z,49.04
2019-05-02T03:25:50.885Z,49.03
2019-05-02T03:26:33.261Z,48.71
2019-05-02T03:27:09.522Z,48.55
2019-05-02T03:27:50.167Z,48.67
2019-05-02T03:28:27.278Z,48.68
2019-05-02T03:29:04.470Z,48.77
2019-05-02T03:29:44.423Z,48.86
2019-05-02T03:30:30.834Z,48.92
2019-05-02T03:30:57.064Z,48.78
2019-05-02T03:31:44.421Z,48.74
2019-05-02T03:32:33.524Z,49.07
2019-05-02T03:33:09.560Z,49.57
2019-05-02T03:33:51.391Z,49.99
2019-05-02T03:34:18.168Z,50.63
2019-05-02T03:34:54.625Z,51.22
2019-05-02T03:35:43.294Z,51.61
2019-05-02T03:36:26.756Z,52.03
2019-05-02T03:36:48.002Z,51.97
2019-05-02T03:37:24.801Z,51.77
2019-05-02T03:38:02.105Z,51.62
2019-05-02T03:38:38.561Z,51.42
2019-05-02T03:39:17.349Z,51.88
2019-05-02T03:39:57.071Z,51.78
2019-05-02T03:40:38.466Z,51.60
2019-05-02T03:41:13.107Z,51.26
2019-05-02T03:41:48.293Z,51.04
2019-05-02T03:42:25.342Z,50.91
2019-05-02T03:43:02.038Z,50.98
2019-05-02T03:43:39.039Z,50.96
2019-05-02T03:44:24.890Z,51.20
2019-05-02T03:44:56.018Z,50.94
2019-05-02T03:45:40.179Z,50.96
2019-05-02T03:46:13.406Z,50.66
2019-05-02T03:46:54.179Z,50.50
2019-05-02T03:47:29.951Z,50.43
2019-05-02T03:48:06.835Z,50.42
2019-05-02T03:48:43.157Z,50.42
2019-05-02T03:49:19.384Z,50.36
2019-05-02T03:49:55.849Z,50.29
2019-05-02T03:50:35.423Z,49.75
2019-05-02T03:51:19.243Z,49.79
2019-05-02T03:51:49.121Z,50.06
2019-05-02T03:52:29.578Z,50.10
2019-05-02T03:53:06.030Z,50.15
2019-05-02T03:53:42.724Z,50.13
2019-05-02T03:54:20.170Z,50.32
2019-05-02T03:54:59.058Z,50.34
2019-05-02T03:55:36.709Z,50.47
2019-05-02T03:56:17.205Z,50.35
2019-05-02T03:56:54.352Z,50.38
2019-05-02T03:57:36.110Z,50.21
2019-05-02T03:58:14.171Z,50.12
2019-05-02T03:58:55.940Z,50.10
2019-05-02T03:59:38.748Z,50.35
2019-05-02T04:00:13.639Z,50.37
2019-05-02T04:00:55.136Z,50.44
2019-05-02T04:01:27.562Z,50.62
2019-05-02T04:02:04.125Z,50.36
2019-05-02T04:02:44.146Z,50.09
2019-05-02T04:03:22.189Z,50.00
2019-05-02T04:03:58.482Z,49.92
2019-05-02T04:04:34.782Z,50.18
2019-05-02T04:05:11.121Z,50.13
2019-05-02T04:05:47.562Z,49.97
2019-05-02T04:06:24.320Z,50.31
2019-05-02T04:07:07.308Z,50.54
2019-05-02T04:07:47.497Z,50.26
2019-05-02T04:08:24.017Z,50.33
2019-05-02T04:09:07.847Z,50.32
2019-05-02T04:09:44.925Z,50.50
2019-05-02T04:10:59.375Z,50.11
2019-05-02T04:11:38.778Z,49.71
2019-05-02T04:12:18.946Z,49.91
2019-05-02T04:12:53.184Z,50.36
2019-05-02T04:13:30.130Z,51.03
2019-05-02T04:14:14.901Z,51.18
2019-05-02T04:14:45.089Z,51.31
2019-05-02T04:15:21.391Z,51.17
2019-05-02T04:15:58.008Z,51.38
2019-05-02T04:16:34.591Z,51.67
2019-05-02T04:17:11.968Z,52.31
2019-05-02T04:17:48.473Z,52.34
2019-05-02T04:18:24.802Z,52.51
2019-05-02T04:19:07.949Z,52.80
2019-05-02T04:19:45.601Z,53.33
2019-05-02T04:20:22.428Z,53.67
2019-05-02T04:20:58.713Z,53.09
2019-05-02T04:21:36.488Z,52.78
2019-05-02T04:22:13.034Z,53.14
2019-05-02T04:23:03.516Z,53.65
2019-05-02T04:23:40.646Z,53.86
2019-05-02T04:24:17.428Z,53.05
2019-05-02T04:24:56.638Z,52.47
2019-05-02T04:25:42.017Z,52.22
2019-05-02T04:26:18.966Z,51.99
2019-05-02T04:27:00.822Z,51.46
2019-05-02T04:27:37.661Z,51.59
2019-05-02T04:28:14.463Z,51.48
2019-05-02T04:28:53.815Z,51.36
2019-05-02T04:29:33.134Z,50.90
2019-05-02T04:30:14.230Z,50.95
2019-05-02T04:30:53.998Z,50.59
2019-05-02T04:31:32.207Z,51.17
2019-05-02T04:32:11.885Z,51.52
2019-05-02T04:32:49.805Z,51.52
2019-05-02T04:33:29.073Z,51.46
2019-05-02T04:34:13.660Z,51.46
2019-05-02T04:34:49.092Z,51.71
2019-05-02T04:35:28.703Z,51.73
2019-05-02T04:36:13.764Z,51.82
2019-05-02T04:36:41.054Z,51.93
2019-05-02T04:37:18.837Z,51.51
2019-05-02T04:37:57.480Z,51.18
2019-05-02T04:38:44.616Z,51.59
2019-05-02T04:39:15.750Z,51.92
2019-05-02T04:39:53.603Z,52.55
2019-05-02T04:40:44.917Z,52.18
2019-05-02T04:41:29.254Z,52.26
2019-05-02T04:41:58.630Z,51.97
2019-05-02T04:42:39.167Z,51.77
2019-05-02T04:43:14.450Z,50.84
2019-05-02T04:43:57.334Z,50.87
2019-05-02T04:44:44.206Z,50.91
2019-05-02T04:45:25.102Z,51.47
2019-05-02T04:45:56.215Z,51.61
2019-05-02T04:46:31.296Z,51.81
2019-05-02T04:47:17.088Z,51.75
2019-05-02T04:47:54.894Z,51.79
2019-05-02T04:48:34.569Z,51.56
2019-05-02T04:49:11.304Z,51.60
2019-05-02T04:49:51.512Z,51.17
2019-05-02T04:50:29.449Z,49.63
2019-05-02T04:51:10.291Z,48.81
2019-05-02T04:51:50.889Z,49.53
2019-05-02T04:52:22.370Z,50.34
2019-05-02T04:52:59.375Z,50.90
2019-05-02T04:53:42.236Z,50.85
2019-05-02T04:54:22.046Z,51.40
2019-05-02T04:54:51.571Z,51.74
2019-05-02T04:55:32.303Z,51.93
2019-05-02T04:56:10.187Z,51.29
2019-05-02T04:56:49.685Z,50.64
2019-05-02T04:57:27.135Z,50.74
2019-05-02T04:58:01.792Z,51.01
2019-05-02T04:58:40.637Z,51.14
2019-05-02T04:59:20.001Z,51.45
2019-05-02T05:00:06.128Z,51.66
2019-05-02T05:00:38.973Z,51.55
2019-05-02T05:01:14.718Z,50.99
2019-05-02T05:01:57.386Z,51.12
2019-05-02T05:02:36.170Z,51.25
2019-05-02T05:03:15.464Z,51.12
2019-05-02T05:03:49.190Z,51.22
2019-05-02T05:04:33.454Z,51.09
2019-05-02T05:05:08.219Z,51.02
2019-05-02T05:05:47.762Z,50.90
2019-05-02T05:06:24.142Z,50.73
2019-05-02T05:07:01.558Z,50.10
2019-05-02T05:07:45.836Z,50.08
2019-05-02T05:08:26.061Z,49.82
2019-05-02T05:08:58.481Z,49.57
2019-05-02T05:09:34.147Z,49.36
2019-05-02T05:10:10.968Z,48.97
2019-05-02T05:10:49.662Z,48.74
2019-05-02T05:11:27.447Z,48.49
2019-05-02T05:12:04.363Z,48.70
2019-05-02T05:12:41.772Z,49.33
2019-05-02T05:13:22.951Z,48.99
2019-05-02T05:14:00.318Z,48.73
2019-05-02T05:14:39.241Z,48.79
2019-05-02T05:15:33.740Z,48.89
2019-05-02T05:15:53.376Z,49.14
2019-05-02T05:16:29.711Z,48.34
2019-05-02T05:17:08.033Z,47.67
2019-05-02T05:17:44.395Z,47.28
2019-05-02T05:18:20.539Z,46.87
2019-05-02T05:18:57.866Z,46.96
2019-05-02T05:19:34.725Z,47.28
2019-05-02T05:20:15.515Z,47.42
2019-05-02T05:20:52.870Z,47.30
2019-05-02T05:21:30.286Z,47.24
2019-05-02T05:22:18.730Z,46.78
2019-05-02T05:22:54.909Z,45.49
2019-05-02T05:23:43.053Z,46.35
2019-05-02T05:24:32.830Z,46.36
2019-05-02T05:25:17.665Z,46.05
2019-05-02T05:26:03.352Z,44.94
2019-05-02T05:26:39.174Z,45.73
2019-05-02T05:27:18.998Z,46.21
2019-05-02T05:27:58.727Z,46.04
2019-05-02T05:28:35.098Z,45.75
2019-05-02T05:29:13.976Z,46.04
2019-05-02T05:29:48.715Z,46.75
2019-05-02T05:30:27.760Z,46.50
2019-05-02T05:31:07.713Z,46.50
2019-05-02T05:31:44.226Z,46.28
2019-05-02T05:32:21.580Z,46.10
2019-05-02T05:32:58.302Z,46.13
2019-05-02T05:33:34.756Z,45.99
2019-05-02T05:34:11.014Z,46.42
2019-05-02T05:34:48.060Z,46.05
2019-05-02T05:35:24.862Z,45.88
2019-05-02T05:36:01.126Z,45.96
2019-05-02T05:36:37.600Z,45.27
2019-05-02T05:37:13.966Z,44.91
2019-05-02T05:37:53.036Z,45.17
2019-05-02T05:38:32.224Z,45.52
2019-05-02T05:39:11.697Z,45.62
2019-05-02T05:39:48.767Z,45.52
2019-05-02T05:40:28.218Z,45.36
2019-05-02T05:41:08.167Z,45.56
2019-05-02T05:41:42.688Z,45.56
2019-05-02T05:42:23.446Z,45.72
2019-05-02T05:42:57.392Z,46.30
2019-05-02T05:43:33.922Z,46.46
2019-05-02T05:44:10.693Z,46.25
2019-05-02T05:44:48.329Z,46.27
2019-05-02T05:45:24.643Z,46.38
2019-05-02T05:46:09.223Z,46.30
2019-05-02T05:46:42.530Z,46.89
2019-05-02T05:47:21.820Z,47.08
2019-05-02T05:48:01.015Z,47.44
2019-05-02T05:48:40.539Z,47.37
2019-05-02T05:49:18.424Z,46.71
2019-05-02T05:49:57.708Z,46.53
2019-05-02T05:50:50.682Z,46.83
2019-05-02T05:51:27.730Z,47.57
2019-05-02T05:52:04.663Z,48.08
2019-05-02T05:52:42.481Z,47.50
2019-05-02T05:53:21.425Z,47.15
2019-05-02T05:54:05.295Z,46.65
2019-05-02T05:54:42.156Z,46.63
2019-05-02T05:55:24.230Z,46.62
2019-05-02T05:56:03.403Z,46.66
2019-05-02T05:56:42.905Z,46.75
2019-05-02T05:57:21.120Z,46.77
2019-05-02T05:58:01.767Z,47.00
2019-05-02T05:58:33.941Z,47.11
2019-05-02T05:59:11.067Z,46.50
2019-05-02T05:59:48.560Z,46.42
2019-05-02T06:00:25.096Z,46.67
2019-05-02T06:01:03.252Z,46.30
2019-05-02T06:01:42.170Z,46.11
2019-05-02T06:02:19.271Z,44.92
2019-05-02T06:03:01.336Z,44.41
2019-05-02T06:03:38.867Z,45.05
2019-05-02T06:04:13.851Z,45.16
2019-05-02T06:04:55.304Z,44.98
2019-05-02T06:05:33.115Z,44.65
2019-05-02T06:06:14.784Z,44.69
2019-05-02T06:06:53.978Z,45.16
2019-05-02T06:07:33.115Z,45.18
2019-05-02T06:08:13.837Z,45.33
2019-05-02T06:08:54.196Z,45.34
2019-05-02T06:09:31.208Z,44.90
2019-05-02T06:10:09.813Z,43.48
2019-05-02T06:10:47.245Z,44.11
2019-05-02T06:11:23.684Z,44.66
2019-05-02T06:12:00.643Z,44.85
2019-05-02T06:12:36.869Z,45.10
2019-05-02T06:13:13.752Z,44.92
2019-05-02T06:13:53.717Z,44.07
2019-05-02T06:14:30.465Z,44.45
2019-05-02T06:15:06.827Z,44.59
2019-05-02T06:15:45.891Z,44.76
2019-05-02T06:16:22.021Z,44.38
2019-05-02T06:16:58.400Z,44.24
2019-05-02T06:17:35.039Z,44.36
2019-05-02T06:18:11.401Z,44.41
2019-05-02T06:18:49.914Z,44.25
2019-05-02T06:19:26.238Z,43.84
2019-05-02T06:20:03.380Z,43.27
2019-05-02T06:20:40.367Z,43.12
2019-05-02T06:21:17.866Z,43.56
2019-05-02T06:21:54.221Z,43.84
2019-05-02T06:22:30.422Z,43.90
2019-05-02T06:23:10.547Z,43.79
2019-05-02T06:23:47.045Z,43.52
2019-05-02T06:24:23.317Z,43.35
2019-05-02T06:24:59.584Z,44.06
2019-05-02T06:25:37.300Z,44.34
2019-05-02T06:26:15.865Z,44.12
2019-05-02T06:26:53.190Z,44.14
2019-05-02T06:27:30.452Z,44.28
2019-05-02T06:28:07.052Z,43.96
2019-05-02T06:28:44.734Z,43.49
2019-05-02T06:29:21.137Z,42.87
2019-05-02T06:29:57.424Z,43.01
2019-05-02T06:30:33.681Z,42.92
2019-05-02T06:31:10.144Z,43.09
2019-05-02T06:31:46.560Z,43.60
2019-05-02T06:32:25.896Z,43.87
2019-05-02T06:33:03.032Z,44.08
2019-05-02T06:33:39.241Z,44.50
2019-05-02T06:34:15.904Z,44.57
2019-05-02T06:34:55.423Z,44.81
2019-05-02T06:35:33.877Z,44.87
2019-05-02T06:36:10.433Z,45.55
2019-05-02T06:36:46.893Z,46.12
2019-05-02T06:37:23.881Z,46.63
2019-05-02T06:38:00.471Z,46.94
2019-05-02T06:38:36.833Z,47.43
2019-05-02T06:39:13.342Z,47.76
2019-05-02T06:39:52.450Z,48.20
2019-05-02T06:40:44.639Z,48.53
2019-05-02T06:41:21.063Z,48.65
2019-05-02T06:41:57.636Z,49.03
2019-05-02T06:42:37.912Z,49.17
2019-05-02T06:43:13.757Z,49.17
2019-05-02T06:43:51.853Z,49.24
2019-05-02T06:44:29.135Z,49.36
2019-05-02T06:45:05.782Z,49.45
2019-05-02T06:45:47.603Z,49.54
2019-05-02T06:46:27.431Z,49.79
2019-05-02T06:47:05.644Z,50.20
2019-05-02T06:47:43.626Z,50.83
2019-05-02T06:48:24.315Z,51.42
2019-05-02T06:49:01.620Z,51.56
2019-05-02T06:49:40.217Z,51.92
2019-05-02T06:50:17.301Z,52.29
2019-05-02T06:50:53.533Z,52.73
2019-05-02T06:51:29.786Z,52.93
2019-05-02T06:52:06.395Z,53.37
2019-05-02T06:52:43.613Z,53.50
2019-05-02T06:53:19.902Z,53.49
2019-05-02T06:53:56.419Z,53.62
2019-05-02T06:54:33.714Z,54.16
2019-05-02T06:55:10.391Z,54.69
2019-05-02T06:55:48.782Z,55.04
2019-05-02T06:56:26.950Z,55.30
2019-05-02T06:57:06.275Z,55.67
2019-05-02T06:57:43.573Z,55.92
2019-05-02T06:58:19.940Z,56.12
2019-05-02T06:59:01.539Z,56.43
2019-05-02T06:59:42.475Z,56.47
2019-05-02T07:00:18.919Z,56.73
2019-05-02T07:00:58.977Z,56.60
2019-05-02T07:01:34.999Z,56.48
2019-05-02T07:02:12.124Z,56.45
2019-05-02T07:02:48.355Z,56.74
2019-05-02T07:03:27.575Z,57.04
2019-05-02T07:04:04.364Z,57.17
2019-05-02T07:04:40.888Z,57.46
2019-05-02T07:05:17.759Z,57.57
2019-05-02T07:05:58.813Z,57.43
2019-05-02T07:06:41.925Z,57.38
2019-05-02T07:07:14.139Z,57.59
2019-05-02T07:07:50.390Z,57.71
2019-05-02T07:08:27.481Z,57.44
2019-05-02T07:09:05.600Z,57.48
2019-05-02T07:09:42.200Z,57.43
2019-05-02T07:10:20.302Z,57.57
2019-05-02T07:11:01.252Z,57.54
2019-05-02T07:11:38.904Z,57.53
2019-05-02T07:12:18.039Z,57.74
2019-05-02T07:13:09.692Z,57.44
2019-05-02T07:13:36.458Z,57.88
2019-05-02T07:14:13.641Z,58.07
2019-05-02T07:14:50.205Z,58.34
2019-05-02T07:15:44.071Z,58.49
2019-05-02T07:16:49.595Z,58.60
2019-05-02T07:17:58.603Z,58.62
2019-05-02T07:18:42.004Z,58.55
2019-05-02T07:19:44.692Z,57.85
2019-05-02T07:20:21.154Z,57.84
2019-05-02T07:20:58.898Z,58.06
2019-05-02T07:21:35.610Z,58.25
2019-05-02T07:22:13.199Z,58.65
2019-05-02T07:22:49.496Z,58.96
2019-05-02T07:23:26.118Z,59.06
2019-05-02T07:24:03.210Z,58.95
2019-05-02T07:24:40.187Z,59.00
2019-05-02T07:25:18.548Z,59.26
2019-05-02T07:25:56.326Z,59.22
2019-05-02T07:26:34.197Z,58.95
2019-05-02T07:27:10.678Z,58.78
2019-05-02T07:27:47.353Z,58.86
2019-05-02T07:28:24.176Z,59.06
2019-05-02T07:29:00.620Z,59.08
2019-05-02T07:29:38.829Z,59.30
2019-05-02T07:30:15.514Z,59.35
2019-05-02T07:30:54.522Z,59.28
2019-05-02T07:31:30.498Z,59.43
2019-05-02T07:32:07.514Z,59.43
2019-05-02T07:32:44.233Z,59.68
2019-05-02T07:33:21.266Z,59.53
2019-05-02T07:33:57.511Z,59.58
2019-05-02T07:34:34.359Z,59.55
2019-05-02T07:35:10.786Z,58.77
2019-05-02T07:35:48.576Z,58.66
2019-05-02T07:36:25.990Z,58.77
2019-05-02T07:37:08.543Z,58.95
2019-05-02T07:37:43.995Z,58.93
2019-05-02T07:38:25.724Z,59.07
2019-05-02T07:39:05.223Z,59.01
2019-05-02T07:39:42.325Z,58.93
2019-05-02T07:40:22.088Z,59.00
2019-05-02T07:40:58.625Z,59.05
2019-05-02T07:41:37.298Z,59.27
2019-05-02T07:42:19.876Z,59.20
2019-05-02T07:42:57.431Z,59.12
2019-05-02T07:43:33.875Z,59.33
2019-05-02T07:44:10.806Z,59.30
2019-05-02T07:44:48.341Z,59.25
2019-05-02T07:45:25.043Z,59.28
2019-05-02T07:46:01.973Z,59.54
2019-05-02T07:46:51.560Z,59.61
2019-05-02T07:47:19.382Z,59.52
2019-05-02T07:47:55.848Z,59.30
2019-05-02T07:48:35.232Z,59.18
2019-05-02T07:49:12.239Z,59.20
2019-05-02T07:49:49.836Z,59.55
2019-05-02T07:50:27.112Z,59.68
2019-05-02T07:51:17.210Z,59.69
2019-05-02T07:51:52.390Z,59.70
2019-05-02T07:52:29.009Z,59.67
2019-05-02T07:53:09.664Z,59.45
2019-05-02T07:53:48.576Z,59.35
2019-05-02T07:54:26.809Z,59.37
2019-05-02T07:55:06.148Z,59.18
2019-05-02T07:55:44.038Z,59.08
2019-05-02T07:56:20.963Z,59.05
2019-05-02T07:56:57.339Z,58.96
2019-05-02T07:57:33.799Z,58.98
2019-05-02T07:58:10.677Z,58.84
2019-05-02T07:58:49.752Z,58.65
2019-05-02T07:59:26.126Z,58.57
2019-05-02T08:00:03.293Z,58.46
2019-05-02T08:00:40.754Z,58.36
2019-05-02T08:01:17.023Z,58.26
2019-05-02T08:01:53.627Z,58.23
2019-05-02T08:02:29.998Z,58.19
2019-05-02T08:03:06.826Z,58.08
2019-05-02T08:03:45.889Z,57.97
2019-05-02T08:04:22.235Z,57.85
2019-05-02T08:05:01.283Z,57.52
2019-05-02T08:05:39.103Z,57.23
2019-05-02T08:06:17.073Z,56.92
2019-05-02T08:06:55.049Z,56.97
2019-05-02T08:07:34.980Z,56.87
2019-05-02T08:08:12.058Z,56.88
2019-05-02T08:08:50.767Z,56.83
2019-05-02T08:09:29.274Z,56.77
2019-05-02T08:10:07.583Z,56.55
2019-05-02T08:10:53.801Z,56.37
2019-05-02T08:11:27.241Z,56.25
2019-05-02T08:12:03.489Z,56.31
2019-05-02T08:12:40.594Z,56.30
2019-05-02T08:13:19.306Z,56.30
2019-05-02T08:14:00.131Z,56.25
2019-05-02T08:14:36.396Z,56.26
2019-05-02T08:15:15.278Z,56.21
2019-05-02T08:15:52.448Z,55.64
2019-05-02T08:16:28.756Z,55.35
2019-05-02T08:17:16.143Z,55.35
2019-05-02T08:17:53.120Z,55.46
2019-05-02T08:18:25.102Z,55.76
2019-05-02T08:19:05.431Z,55.76
2019-05-02T08:19:41.939Z,55.61
2019-05-02T08:20:19.228Z,55.48
2019-05-02T08:20:58.537Z,55.26
2019-05-02T08:21:34.856Z,55.15